createdAt,value
2022-11-05T00:02:27.539Z,4.50
2022-11-05T00:05:18.118Z,5.20
2022-11-05T00:08:10.981Z,5.00
2022-11-05T00:10:44.124Z,3.67
2022-11-05T00:13:35.231Z,3.65
2022-11-05T00:16:25.581Z,4.43
2022-11-05T00:19:06.723Z,6.40
2022-11-05T00:21:57.747Z,5.93
2022-11-05T00:24:48.398Z,6.40
2022-11-05T00:27:21.464Z,6.07
2022-11-05T00:29:53.218Z,4.97
2022-11-05T00:32:24.959Z,7.35
2022-11-05T00:34:56.693Z,6.00
2022-11-05T00:37:28.672Z,4.47
2022-11-05T00:40:00.507Z,5.40
2022-11-05T00:42:52.257Z,5.72
2022-11-05T00:45:24.078Z,6.93
2022-11-05T00:48:14.440Z,5.38
2022-11-05T00:50:46.547Z,7.43
2022-11-05T00:53:18.419Z,6.38
2022-11-05T00:55:50.224Z,7.55
2022-11-05T00:58:23.904Z,5.75
2022-11-05T01:00:57.152Z,5.93
2022-11-05T01:03:31.448Z,8.25
2022-11-05T01:06:09.023Z,4.75
2022-11-05T01:08:42.251Z,7.90
2022-11-05T01:11:33.213Z,5.30
2022-11-05T01:14:08.789Z,6.72
2022-11-05T01:16:40.770Z,5.75
2022-11-05T01:19:12.692Z,9.77
2022-11-05T01:21:44.433Z,6.97
2022-11-05T01:24:16.211Z,10.20
2022-11-05T01:26:47.925Z,12.20
2022-11-05T01:29:21.214Z,10.63
2022-11-05T01:31:52.970Z,11.32
2022-11-05T01:34:24.743Z,12.65
2022-11-05T01:36:56.517Z,11.25
2022-11-05T01:39:28.310Z,10.82
2022-11-05T01:42:00.258Z,10.43
2022-11-05T01:45:02.229Z,13.95
2022-11-05T01:47:51.402Z,10.55
2022-11-05T01:50:30.662Z,14.88
2022-11-05T01:53:15.530Z,11.55
2022-11-05T01:55:53.682Z,13.93
2022-11-05T01:58:32.191Z,10.88
2022-11-05T02:01:05.401Z,13.85
2022-11-05T02:03:37.407Z,12.85
2022-11-05T02:06:09.481Z,15.75
2022-11-05T02:08:55.822Z,12.27
2022-11-05T02:11:27.972Z,13.60
2022-11-05T02:13:59.774Z,11.13
2022-11-05T02:16:43.265Z,16.92
2022-11-05T02:19:53.581Z,11.70
2022-11-05T02:23:02.998Z,10.30
2022-11-05T02:25:57.536Z,12.07
2022-11-05T02:28:59.041Z,13.27
2022-11-05T02:31:40.540Z,11.65
2022-11-05T02:34:23.004Z,13.48
2022-11-05T02:37:03.533Z,11.90
2022-11-05T02:39:46.911Z,12.13
2022-11-05T02:42:30.405Z,10.98
2022-11-05T02:45:16.137Z,8.95
2022-11-05T02:47:56.158Z,12.10
2022-11-05T02:50:34.808Z,13.35
2022-11-05T02:53:13.483Z,14.70
2022-11-05T02:55:50.192Z,15.35
2022-11-05T02:58:22.249Z,17.42
2022-11-05T03:00:54.883Z,18.08
2022-11-05T03:03:34.004Z,19.48
2022-11-05T03:06:34.373Z,19.77
2022-11-05T03:09:23.437Z,19.45
2022-11-05T03:12:07.917Z,18.45
2022-11-05T03:14:48.716Z,20.35
2022-11-05T03:17:31.194Z,20.75
2022-11-05T03:20:12.775Z,19.25
2022-11-05T03:22:51.058Z,21.30
2022-11-05T03:25:25.599Z,17.92
2022-11-05T03:28:02.914Z,20.75
2022-11-05T03:30:36.642Z,23.10
2022-11-05T03:33:13.581Z,24.05
2022-11-05T03:35:52.219Z,26.33
2022-11-05T03:38:28.056Z,21.15
2022-11-05T03:41:04.553Z,23.33
2022-11-05T03:43:39.838Z,24.95
2022-11-05T03:46:18.029Z,26.02
2022-11-05T03:48:53.576Z,23.50
2022-11-05T03:51:31.927Z,25.00
2022-11-05T03:54:05.051Z,23.55
2022-11-05T03:56:41.253Z,28.67
2022-11-05T03:59:13.770Z,26.00
2022-11-05T04:01:45.647Z,27.23
2022-11-05T04:04:17.606Z,28.63
2022-11-05T04:07:09.621Z,31.33
2022-11-05T04:10:00.291Z,27.13
2022-11-05T04:12:50.720Z,33.78
2022-11-05T04:15:22.520Z,29.83
2022-11-05T04:17:55.496Z,30.25
2022-11-05T04:20:45.786Z,31.88
2022-11-05T04:23:37.696Z,32.88
2022-11-05T04:26:09.408Z,29.33
2022-11-05T04:29:03.838Z,30.30
2022-11-05T04:31:39.585Z,33.92
2022-11-05T04:34:11.311Z,31.00
2022-11-05T04:36:43.084Z,29.83
2022-11-05T04:39:16.943Z,30.52
2022-11-05T04:41:48.897Z,31.05
2022-11-05T04:44:20.731Z,33.50
2022-11-05T04:46:52.462Z,31.55
2022-11-05T04:49:24.206Z,33.83
2022-11-05T04:51:56.023Z,33.78
2022-11-05T04:54:29.219Z,31.63
2022-11-05T04:57:01.140Z,30.52
2022-11-05T04:59:32.873Z,29.70
2022-11-05T05:02:04.660Z,33.38
2022-11-05T05:04:36.502Z,30.73
2022-11-05T05:07:08.219Z,28.02
2022-11-05T05:09:41.278Z,28.95
2022-11-05T05:12:13.052Z,28.65
2022-11-05T05:14:47.354Z,25.80
2022-11-05T05:17:19.306Z,27.13
2022-11-05T05:20:10.006Z,27.27
2022-11-05T05:22:41.767Z,30.85
2022-11-05T05:25:14.862Z,25.02
2022-11-05T05:27:46.601Z,25.95
2022-11-05T05:30:18.511Z,28.98
2022-11-05T05:32:50.301Z,33.67
2022-11-05T05:35:22.069Z,31.02
2022-11-05T05:37:55.530Z,27.50
2022-11-05T05:40:28.626Z,29.55
2022-11-05T05:43:00.380Z,28.88
2022-11-05T05:45:32.151Z,26.08
2022-11-05T05:48:04.536Z,27.80
2022-11-05T05:50:36.461Z,29.80
2022-11-05T05:53:09.000Z,34.55
2022-11-05T05:55:42.267Z,28.15
2022-11-05T05:58:14.077Z,33.85
2022-11-05T06:00:45.829Z,30.75
2022-11-05T06:03:17.614Z,32.38
2022-11-05T06:05:49.394Z,32.70
2022-11-05T06:08:21.124Z,34.40
2022-11-05T06:10:54.342Z,34.85
2022-11-05T06:13:26.646Z,33.10
2022-11-05T06:16:01.033Z,37.53
2022-11-05T06:18:33.678Z,37.35
2022-11-05T06:21:07.834Z,38.70
2022-11-05T06:23:41.480Z,42.95
2022-11-05T06:26:17.080Z,42.15
2022-11-05T06:28:48.927Z,38.15
2022-11-05T06:31:21.014Z,40.13
2022-11-05T06:33:52.789Z,45.17
2022-11-05T06:36:24.524Z,41.92
2022-11-05T06:38:56.255Z,41.25
2022-11-05T06:41:29.435Z,42.63
2022-11-05T06:44:01.297Z,39.92
2022-11-05T06:46:33.100Z,43.28
2022-11-05T06:49:04.863Z,42.35
2022-11-05T06:51:36.598Z,40.22
2022-11-05T06:54:08.632Z,46.25
2022-11-05T06:56:41.773Z,47.35
2022-11-05T06:59:13.530Z,46.40
2022-11-05T07:01:45.411Z,44.03
2022-11-05T07:04:17.311Z,40.72
2022-11-05T07:06:49.069Z,42.33
2022-11-05T07:09:20.872Z,44.53
2022-11-05T07:11:53.944Z,40.63
2022-11-05T07:14:25.682Z,43.65
2022-11-05T07:16:57.773Z,44.97
2022-11-05T07:19:29.519Z,40.75
2022-11-05T07:22:01.232Z,40.60
2022-11-05T07:24:33.030Z,40.63
2022-11-05T07:27:06.135Z,40.20
2022-11-05T07:29:37.869Z,42.05
2022-11-05T07:32:09.701Z,41.55
2022-11-05T07:34:41.476Z,35.47
2022-11-05T07:37:13.302Z,35.78
2022-11-05T07:39:45.086Z,39.60
2022-11-05T07:42:18.153Z,33.10
2022-11-05T07:44:49.966Z,31.10
2022-11-05T07:47:21.735Z,28.08
2022-11-05T07:49:53.517Z,29.13
2022-11-05T07:52:27.133Z,26.38
2022-11-05T07:54:59.076Z,26.00
2022-11-05T07:57:32.158Z,25.58
2022-11-05T08:00:04.488Z,21.45
2022-11-05T08:02:36.434Z,21.92
2022-11-05T08:05:08.740Z,21.50
2022-11-05T08:07:40.447Z,18.85
2022-11-05T08:10:12.176Z,17.60
2022-11-05T08:12:45.234Z,20.98
2022-11-05T08:15:17.215Z,21.15
2022-11-05T08:17:49.118Z,19.02
2022-11-05T08:20:20.852Z,19.27
2022-11-05T08:22:53.582Z,19.63
2022-11-05T08:25:26.143Z,26.60
2022-11-05T08:28:01.145Z,18.20
2022-11-05T08:30:33.183Z,20.77
2022-11-05T08:33:07.353Z,22.02
2022-11-05T08:35:39.878Z,21.23
2022-11-05T08:38:16.503Z,18.27
2022-11-05T08:40:55.783Z,25.58
2022-11-05T08:43:28.955Z,20.88
2022-11-05T08:46:01.133Z,19.38
2022-11-05T08:48:32.919Z,18.58
2022-11-05T08:51:04.809Z,19.85
2022-11-05T08:53:36.612Z,19.08
2022-11-05T08:56:09.031Z,16.65
2022-11-05T08:58:42.305Z,17.93
2022-11-05T09:03:46.040Z,18.48
2022-11-05T09:06:18.040Z,18.33
2022-11-05T09:08:49.813Z,16.77
2022-11-05T09:11:21.637Z,15.90
2022-11-05T09:13:54.711Z,17.40
2022-11-05T09:16:27.057Z,15.52
2022-11-05T09:18:58.832Z,17.75
2022-11-05T09:21:31.113Z,16.88
2022-11-05T09:24:03.059Z,17.58
2022-11-05T09:26:34.840Z,21.63
2022-11-05T09:29:13.178Z,15.38
2022-11-05T09:31:46.206Z,19.88
2022-11-05T09:34:17.969Z,22.60
2022-11-05T09:36:49.734Z,17.48
2022-11-05T09:39:21.499Z,20.73
2022-11-05T09:41:56.371Z,17.67
2022-11-05T09:44:35.693Z,18.45
2022-11-05T09:47:13.794Z,24.60
2022-11-05T09:49:50.092Z,19.75
2022-11-05T09:52:23.547Z,21.85
2022-11-05T09:54:56.688Z,20.88
2022-11-05T09:57:30.801Z,20.58
2022-11-05T10:00:06.881Z,20.02
2022-11-05T10:02:46.271Z,25.92
2022-11-05T10:05:20.146Z,17.23
2022-11-05T10:07:56.659Z,16.83
2022-11-05T10:10:40.532Z,17.23
2022-11-05T10:13:22.480Z,20.23
2022-11-05T10:16:01.326Z,15.77
2022-11-05T10:18:35.750Z,17.10
2022-11-05T10:21:13.967Z,18.02
2022-11-05T10:23:47.132Z,19.70
2022-11-05T10:26:21.841Z,16.00
2022-11-05T10:28:54.549Z,15.95
2022-11-05T10:31:35.181Z,18.83
2022-11-05T10:34:11.277Z,17.55
2022-11-05T10:36:43.790Z,17.35
2022-11-05T10:39:17.667Z,19.80
2022-11-05T10:42:06.009Z,18.02
2022-11-05T10:44:43.939Z,17.27
2022-11-05T10:47:50.038Z,21.05
2022-11-05T10:50:24.589Z,17.17
2022-11-05T10:52:59.275Z,19.00
2022-11-05T10:55:34.265Z,27.27
2022-11-05T10:58:17.974Z,17.92
2022-11-05T11:03:48.408Z,19.58
2022-11-05T11:06:24.288Z,24.92
2022-11-05T11:08:58.089Z,22.77
2022-11-05T11:11:33.546Z,21.05
2022-11-05T11:14:17.885Z,19.83
2022-11-05T11:16:51.670Z,23.45
2022-11-05T11:19:28.248Z,20.35
2022-11-05T11:22:16.341Z,26.25
2022-11-05T11:24:50.479Z,24.48
2022-11-05T11:27:24.671Z,17.20
2022-11-05T11:29:58.875Z,23.05
2022-11-05T11:32:36.213Z,23.95
2022-11-05T11:35:21.834Z,23.98
2022-11-05T11:37:55.653Z,20.83
2022-11-05T11:40:31.174Z,23.40
2022-11-05T11:43:06.939Z,20.95
2022-11-05T11:45:45.351Z,22.67
2022-11-05T11:48:19.813Z,25.08
2022-11-05T11:50:52.964Z,23.45
2022-11-05T11:53:30.920Z,25.23
2022-11-05T11:56:12.889Z,23.08
2022-11-05T11:58:47.609Z,20.85
2022-11-05T12:01:59.371Z,19.00
2022-11-05T12:04:55.133Z,20.95
2022-11-05T12:07:42.576Z,19.08
2022-11-05T12:10:36.327Z,21.17
2022-11-05T12:13:49.029Z,19.30
2022-11-05T12:16:32.253Z,17.27
2022-11-05T12:19:15.117Z,19.42
2022-11-05T12:21:59.929Z,18.55
2022-11-05T12:24:57.715Z,17.88
2022-11-05T12:27:44.862Z,20.10
2022-11-05T12:30:18.827Z,15.10
2022-11-05T12:33:11.572Z,14.00
2022-11-05T12:35:57.921Z,11.80
2022-11-05T12:38:46.684Z,15.95
2022-11-05T12:41:26.324Z,17.00
2022-11-05T12:44:14.474Z,11.02
2022-11-05T12:46:58.016Z,12.93
2022-11-05T12:49:41.340Z,14.40
2022-11-05T12:52:28.612Z,12.48
2022-11-05T12:55:05.416Z,9.10
2022-11-05T12:57:41.353Z,10.13
2022-11-05T13:00:18.515Z,12.10
2022-11-05T13:02:54.517Z,9.98
2022-11-05T13:05:38.891Z,11.15
2022-11-05T13:08:14.942Z,7.82
2022-11-05T13:10:52.409Z,6.72
2022-11-05T13:13:31.231Z,5.22
2022-11-05T13:16:06.662Z,9.45
2022-11-05T13:18:43.922Z,8.98
2022-11-05T13:21:18.664Z,6.80
2022-11-05T13:23:55.450Z,8.43
2022-11-05T13:26:33.086Z,7.47
2022-11-05T13:29:12.371Z,6.03
2022-11-05T13:31:51.061Z,7.32
2022-11-05T13:34:22.891Z,6.75
2022-11-05T13:37:17.762Z,8.93
2022-11-05T13:39:54.010Z,7.63
2022-11-05T13:42:54.801Z,6.63
2022-11-05T13:45:49.090Z,7.47
2022-11-05T13:48:47.390Z,8.35
2022-11-05T13:51:39.481Z,9.65
2022-11-05T13:54:54.169Z,9.90
2022-11-05T14:00:21.118Z,9.63
2022-11-05T14:02:57.363Z,8.77
2022-11-05T14:05:32.006Z,8.82
2022-11-05T14:08:10.859Z,8.18
2022-11-05T14:10:46.526Z,8.63
2022-11-05T14:13:23.714Z,7.78
2022-11-05T14:16:03.825Z,9.10
2022-11-05T14:18:42.715Z,11.32
2022-11-05T14:21:32.999Z,7.50
2022-11-05T14:24:40.180Z,8.10
2022-11-05T14:27:41.355Z,8.25
2022-11-05T14:30:41.059Z,6.43
2022-11-05T14:33:32.013Z,11.43
2022-11-05T14:36:39.227Z,7.82
2022-11-05T14:39:20.475Z,6.90
2022-11-05T14:41:58.757Z,6.95
2022-11-05T14:44:32.859Z,8.27
2022-11-05T14:47:06.686Z,10.65
2022-11-05T14:49:49.156Z,6.28
2022-11-05T14:52:23.417Z,11.75
2022-11-05T14:54:57.103Z,8.73
2022-11-05T14:58:19.897Z,7.03
2022-11-05T15:00:52.547Z,10.23
2022-11-05T15:03:33.651Z,8.02
2022-11-05T15:06:21.393Z,8.40
2022-11-05T15:09:11.254Z,9.10
2022-11-05T15:11:50.085Z,7.68
2022-11-05T15:14:27.334Z,6.88
2022-11-05T15:17:04.102Z,9.77
2022-11-05T15:19:37.330Z,7.93
2022-11-05T15:22:28.111Z,6.20
2022-11-05T15:25:01.507Z,6.30
2022-11-05T15:30:17.377Z,9.23
2022-11-05T15:32:49.439Z,7.53
2022-11-05T15:35:26.862Z,9.13
2022-11-05T15:38:02.237Z,6.43
2022-11-05T15:40:35.861Z,9.00
2022-11-05T15:43:09.357Z,8.35
2022-11-05T15:45:41.337Z,8.18
2022-11-05T15:48:14.744Z,6.93
2022-11-05T15:53:47.380Z,10.35
2022-11-05T15:56:26.441Z,11.85
2022-11-05T15:59:01.557Z,11.18
2022-11-05T16:01:35.858Z,10.25
2022-11-05T16:04:16.316Z,7.68
2022-11-05T16:06:50.509Z,9.23
2022-11-05T16:09:25.253Z,8.20
2022-11-05T16:12:24.098Z,13.48
2022-11-05T16:15:04.278Z,8.52
2022-11-05T16:17:47.153Z,10.93
2022-11-05T16:20:22.336Z,9.20
2022-11-05T16:22:56.143Z,13.85
2022-11-05T16:25:32.152Z,10.00
2022-11-05T16:28:07.508Z,9.55
2022-11-05T16:30:39.298Z,10.77
2022-11-05T16:33:13.940Z,15.02
2022-11-05T16:35:47.725Z,12.73
2022-11-05T16:40:52.120Z,9.97
2022-11-05T16:43:26.308Z,11.13
2022-11-05T16:46:00.127Z,10.90
2022-11-05T16:48:31.901Z,11.70
2022-11-05T16:51:03.615Z,14.20
2022-11-05T16:56:13.475Z,12.52
